University Buffalo, New York
Current Conditions -  °F | °C
As of 4:54 PM on Wednesday 26 Nov 2014 (Local Time) from KBUF Reporting Station
Overcast Overcast  
Wind Chill: -5°   Ceiling: 600
Heat Index:   Visibility: 9mi
Dew Point: -2°   Wind: 10mph
Humidity: 88%   Direction: 40°NE
Pressure: 30.06"   Gusts: NA
Location:  42.9393°N, 78.8401°W
Report Text: KBUF 262154Z 04009KT 9SM BKN006 OVC015 00/M02 A3006 RMK AO2 SNE51 SLP188 P0000 T00001017
Loading
Personal Weather Stations






























Interactive Weather Map New forecast layout! Learn more

10-Day Weather Forecast

Advertisements
Track Severe Weather on mobile